sensor_id;sensor_type;location;lat;lon;timestamp;temperature;humidity
2935;DHT22;2462;51.456;7.248;2023-01-05T00:01:26;13.80;99.90
2935;DHT22;2462;51.456;7.248;2023-01-05T00:03:51;13.80;99.90
2935;DHT22;2462;51.456;7.248;2023-01-05T00:06:17;13.80;99.90
2935;DHT22;2462;51.456;7.248;2023-01-05T00:08:44;13.80;99.90
2935;DHT22;2462;51.456;7.248;2023-01-05T00:11:15;13.70;99.90
2935;DHT22;2462;51.456;7.248;2023-01-05T00:14:00;13.70;99.90
2935;DHT22;2462;51.456;7.248;2023-01-05T00:16:44;13.70;99.90
2935;DHT22;2462;51.456;7.248;2023-01-05T00:19:28;13.70;99.90
2935;DHT22;2462;51.456;7.248;2023-01-05T00:22:21;13.70;99.90
2935;DHT22;2462;51.456;7.248;2023-01-05T00:25:00;13.70;99.90
2935;DHT22;2462;51.456;7.248;2023-01-05T00:27:27;13.70;99.90
2935;DHT22;2462;51.456;7.248;2023-01-05T00:29:53;13.70;99.90
2935;DHT22;2462;51.456;7.248;2023-01-05T00:32:19;13.70;99.90
2935;DHT22;2462;51.456;7.248;2023-01-05T00:34:45;13.70;99.90
2935;DHT22;2462;51.456;7.248;2023-01-05T00:37:11;13.70;99.90
2935;DHT22;2462;51.456;7.248;2023-01-05T00:39:36;13.70;99.90
2935;DHT22;2462;51.456;7.248;2023-01-05T00:42:02;13.70;99.90
2935;DHT22;2462;51.456;7.248;2023-01-05T00:44:27;13.70;99.90
2935;DHT22;2462;51.456;7.248;2023-01-05T00:46:53;13.70;99.90
2935;DHT22;2462;51.456;7.248;2023-01-05T00:49:19;13.70;99.90
2935;DHT22;2462;51.456;7.248;2023-01-05T00:51:44;13.70;99.90
2935;DHT22;2462;51.456;7.248;2023-01-05T00:54:10;13.70;99.90
2935;DHT22;2462;51.456;7.248;2023-01-05T00:56:35;13.70;99.90
2935;DHT22;2462;51.456;7.248;2023-01-05T00:59:01;13.70;99.90
2935;DHT22;2462;51.456;7.248;2023-01-05T01:01:26;13.60;99.90
2935;DHT22;2462;51.456;7.248;2023-01-05T01:03:52;13.60;99.90
2935;DHT22;2462;51.456;7.248;2023-01-05T01:06:17;13.60;99.90
2935;DHT22;2462;51.456;7.248;2023-01-05T01:08:43;13.60;99.90
2935;DHT22;2462;51.456;7.248;2023-01-05T01:11:09;13.60;99.90
2935;DHT22;2462;51.456;7.248;2023-01-05T01:13:35;13.70;99.90
2935;DHT22;2462;51.456;7.248;2023-01-05T01:16:11;13.60;99.90
2935;DHT22;2462;51.456;7.248;2023-01-05T01:18:37;13.70;99.90
2935;DHT22;2462;51.456;7.248;2023-01-05T01:21:04;13.70;99.90
2935;DHT22;2462;51.456;7.248;2023-01-05T01:23:30;13.70;99.90
2935;DHT22;2462;51.456;7.248;2023-01-05T01:25:56;13.70;99.90
2935;DHT22;2462;51.456;7.248;2023-01-05T01:28:22;13.60;99.90
2935;DHT22;2462;51.456;7.248;2023-01-05T01:30:48;13.70;99.90
2935;DHT22;2462;51.456;7.248;2023-01-05T01:33:14;13.60;99.90
2935;DHT22;2462;51.456;7.248;2023-01-05T01:35:39;13.60;99.90
2935;DHT22;2462;51.456;7.248;2023-01-05T01:38:05;13.60;99.90
2935;DHT22;2462;51.456;7.248;2023-01-05T01:40:37;13.60;99.90
2935;DHT22;2462;51.456;7.248;2023-01-05T01:43:48;13.60;99.90
2935;DHT22;2462;51.456;7.248;2023-01-05T01:45:53;13.60;99.90
2935;DHT22;2462;51.456;7.248;2023-01-05T01:48:19;13.60;99.90
2935;DHT22;2462;51.456;7.248;2023-01-05T01:50:52;13.70;99.90
2935;DHT22;2462;51.456;7.248;2023-01-05T01:53:33;13.60;99.90
2935;DHT22;2462;51.456;7.248;2023-01-05T01:56:02;13.60;99.90
2935;DHT22;2462;51.456;7.248;2023-01-05T01:58:29;13.60;99.90
2935;DHT22;2462;51.456;7.248;2023-01-05T02:00:57;13.60;99.90
2935;DHT22;2462;51.456;7.248;2023-01-05T02:03:25;13.60;99.90
2935;DHT22;2462;51.456;7.248;2023-01-05T02:05:50;13.60;99.90
2935;DHT22;2462;51.456;7.248;2023-01-05T02:08:17;13.60;99.90
2935;DHT22;2462;51.456;7.248;2023-01-05T02:11:19;13.60;99.90
2935;DHT22;2462;51.456;7.248;2023-01-05T02:25:10;13.60;99.90
2935;DHT22;2462;51.456;7.248;2023-01-05T02:31:38;13.60;99.90
2935;DHT22;2462;51.456;7.248;2023-01-05T02:34:01;13.60;99.90
2935;DHT22;2462;51.456;7.248;2023-01-05T02:36:42;13.60;99.90
2935;DHT22;2462;51.456;7.248;2023-01-05T02:39:24;13.60;99.90
2935;DHT22;2462;51.456;7.248;2023-01-05T02:42:09;13.60;99.90
2935;DHT22;2462;51.456;7.248;2023-01-05T02:44:37;13.60;99.90
2935;DHT22;2462;51.456;7.248;2023-01-05T02:47:34;13.60;99.90
2935;DHT22;2462;51.456;7.248;2023-01-05T02:52:41;13.60;99.90
2935;DHT22;2462;51.456;7.248;2023-01-05T02:55:11;13.60;99.90
2935;DHT22;2462;51.456;7.248;2023-01-05T02:57:42;13.60;99.90
2935;DHT22;2462;51.456;7.248;2023-01-05T03:00:19;13.60;99.90
2935;DHT22;2462;51.456;7.248;2023-01-05T03:02:47;13.60;99.90
2935;DHT22;2462;51.456;7.248;2023-01-05T03:05:19;13.60;99.90
2935;DHT22;2462;51.456;7.248;2023-01-05T03:07:48;13.60;99.90
2935;DHT22;2462;51.456;7.248;2023-01-05T03:10:15;13.60;99.90
2935;DHT22;2462;51.456;7.248;2023-01-05T03:13:04;13.60;99.90
2935;DHT22;2462;51.456;7.248;2023-01-05T03:15:50;13.60;99.90
2935;DHT22;2462;51.456;7.248;2023-01-05T03:18:18;13.60;99.90
2935;DHT22;2462;51.456;7.248;2023-01-05T03:20:48;13.60;99.90
2935;DHT22;2462;51.456;7.248;2023-01-05T03:23:17;13.60;99.90
2935;DHT22;2462;51.456;7.248;2023-01-05T03:26:02;13.60;99.90
2935;DHT22;2462;51.456;7.248;2023-01-05T03:32:16;13.60;99.90
2935;DHT22;2462;51.456;7.248;2023-01-05T03:35:09;13.60;99.90
2935;DHT22;2462;51.456;7.248;2023-01-05T03:38:02;13.60;99.90
2935;DHT22;2462;51.456;7.248;2023-01-05T03:40:31;13.60;99.90
2935;DHT22;2462;51.456;7.248;2023-01-05T03:42:58;13.60;99.90
2935;DHT22;2462;51.456;7.248;2023-01-05T03:45:31;13.60;99.90
2935;DHT22;2462;51.456;7.248;2023-01-05T03:47:57;13.60;99.90
2935;DHT22;2462;51.456;7.248;2023-01-05T03:50:22;13.60;99.90
2935;DHT22;2462;51.456;7.248;2023-01-05T03:52:48;13.60;99.90
2935;DHT22;2462;51.456;7.248;2023-01-05T03:55:14;13.60;99.90
2935;DHT22;2462;51.456;7.248;2023-01-05T03:57:39;13.60;99.90
2935;DHT22;2462;51.456;7.248;2023-01-05T04:00:05;13.60;99.90
2935;DHT22;2462;51.456;7.248;2023-01-05T04:02:31;13.60;99.90
2935;DHT22;2462;51.456;7.248;2023-01-05T04:04:56;13.60;99.90
2935;DHT22;2462;51.456;7.248;2023-01-05T04:07:22;13.60;99.90
2935;DHT22;2462;51.456;7.248;2023-01-05T04:09:47;13.60;99.90
2935;DHT22;2462;51.456;7.248;2023-01-05T04:12:13;13.60;99.90
2935;DHT22;2462;51.456;7.248;2023-01-05T04:14:38;13.60;99.90
2935;DHT22;2462;51.456;7.248;2023-01-05T04:17:04;13.50;99.90
2935;DHT22;2462;51.456;7.248;2023-01-05T04:19:29;13.60;99.90
2935;DHT22;2462;51.456;7.248;2023-01-05T04:21:55;13.60;99.90
2935;DHT22;2462;51.456;7.248;2023-01-05T04:24:20;13.60;99.90
2935;DHT22;2462;51.456;7.248;2023-01-05T04:26:46;13.60;99.90
2935;DHT22;2462;51.456;7.248;2023-01-05T04:29:11;13.60;99.90
2935;DHT22;2462;51.456;7.248;2023-01-05T04:31:37;13.60;99.90
2935;DHT22;2462;51.456;7.248;2023-01-05T04:34:02;13.60;99.90
2935;DHT22;2462;51.456;7.248;2023-01-05T04:36:28;13.60;99.90
2935;DHT22;2462;51.456;7.248;2023-01-05T04:38:53;13.60;99.90
2935;DHT22;2462;51.456;7.248;2023-01-05T04:41:19;13.50;99.90
2935;DHT22;2462;51.456;7.248;2023-01-05T04:43:44;13.50;99.90
2935;DHT22;2462;51.456;7.248;2023-01-05T04:46:10;13.50;99.90
2935;DHT22;2462;51.456;7.248;2023-01-05T04:48:35;13.50;99.90
2935;DHT22;2462;51.456;7.248;2023-01-05T04:51:01;13.50;99.90
2935;DHT22;2462;51.456;7.248;2023-01-05T04:53:27;13.50;99.90
2935;DHT22;2462;51.456;7.248;2023-01-05T04:55:52;13.50;99.90
2935;DHT22;2462;51.456;7.248;2023-01-05T04:58:18;13.50;99.90
2935;DHT22;2462;51.456;7.248;2023-01-05T05:00:44;13.50;99.90
2935;DHT22;2462;51.456;7.248;2023-01-05T05:03:09;13.50;99.90
2935;DHT22;2462;51.456;7.248;2023-01-05T05:05:35;13.50;99.90
2935;DHT22;2462;51.456;7.248;2023-01-05T05:08:01;13.50;99.90
2935;DHT22;2462;51.456;7.248;2023-01-05T05:10:27;13.50;99.90
2935;DHT22;2462;51.456;7.248;2023-01-05T05:12:53;13.50;99.90
2935;DHT22;2462;51.456;7.248;2023-01-05T05:15:18;13.50;99.90
2935;DHT22;2462;51.456;7.248;2023-01-05T05:17:44;13.50;99.90
2935;DHT22;2462;51.456;7.248;2023-01-05T05:20:10;13.50;99.90
2935;DHT22;2462;51.456;7.248;2023-01-05T05:22:36;13.50;99.90
2935;DHT22;2462;51.456;7.248;2023-01-05T05:25:01;13.50;99.90
2935;DHT22;2462;51.456;7.248;2023-01-05T05:27:27;13.50;99.90
2935;DHT22;2462;51.456;7.248;2023-01-05T05:29:53;13.50;99.90
2935;DHT22;2462;51.456;7.248;2023-01-05T05:32:18;13.50;99.90
2935;DHT22;2462;51.456;7.248;2023-01-05T05:34:44;13.40;99.90
2935;DHT22;2462;51.456;7.248;2023-01-05T05:37:09;13.50;99.90
2935;DHT22;2462;51.456;7.248;2023-01-05T05:39:35;13.40;99.90
2935;DHT22;2462;51.456;7.248;2023-01-05T05:42:00;13.50;99.90
2935;DHT22;2462;51.456;7.248;2023-01-05T05:44:26;13.50;99.90
2935;DHT22;2462;51.456;7.248;2023-01-05T05:46:51;13.50;99.90
2935;DHT22;2462;51.456;7.248;2023-01-05T05:49:17;13.50;99.90
2935;DHT22;2462;51.456;7.248;2023-01-05T05:51:43;13.50;99.90
2935;DHT22;2462;51.456;7.248;2023-01-05T05:54:08;13.40;99.90
2935;DHT22;2462;51.456;7.248;2023-01-05T05:56:34;13.40;99.90
2935;DHT22;2462;51.456;7.248;2023-01-05T05:58:59;13.50;99.90
2935;DHT22;2462;51.456;7.248;2023-01-05T06:01:25;13.40;99.90
2935;DHT22;2462;51.456;7.248;2023-01-05T06:03:50;13.40;99.90
2935;DHT22;2462;51.456;7.248;2023-01-05T06:06:16;13.50;99.90
2935;DHT22;2462;51.456;7.248;2023-01-05T06:08:41;13.40;99.90
2935;DHT22;2462;51.456;7.248;2023-01-05T06:11:07;13.50;99.90
2935;DHT22;2462;51.456;7.248;2023-01-05T06:13:33;13.40;99.90
2935;DHT22;2462;51.456;7.248;2023-01-05T06:15:58;13.40;99.90
2935;DHT22;2462;51.456;7.248;2023-01-05T06:18:24;13.40;99.90
2935;DHT22;2462;51.456;7.248;2023-01-05T06:20:49;13.40;99.90
2935;DHT22;2462;51.456;7.248;2023-01-05T06:23:15;13.40;99.90
2935;DHT22;2462;51.456;7.248;2023-01-05T06:25:40;13.40;99.90
2935;DHT22;2462;51.456;7.248;2023-01-05T06:28:06;13.40;99.90
2935;DHT22;2462;51.456;7.248;2023-01-05T06:30:32;13.40;99.90
2935;DHT22;2462;51.456;7.248;2023-01-05T06:32:57;13.40;99.90
2935;DHT22;2462;51.456;7.248;2023-01-05T06:35:23;13.40;99.90
2935;DHT22;2462;51.456;7.248;2023-01-05T06:37:49;13.40;99.90
2935;DHT22;2462;51.456;7.248;2023-01-05T06:40:14;13.40;99.90
2935;DHT22;2462;51.456;7.248;2023-01-05T06:42:41;13.40;99.90
2935;DHT22;2462;51.456;7.248;2023-01-05T06:45:08;13.40;99.90
2935;DHT22;2462;51.456;7.248;2023-01-05T06:47:34;13.40;99.90
2935;DHT22;2462;51.456;7.248;2023-01-05T06:49:59;13.40;99.90
2935;DHT22;2462;51.456;7.248;2023-01-05T06:52:25;13.40;99.90
2935;DHT22;2462;51.456;7.248;2023-01-05T06:54:51;13.40;99.90
2935;DHT22;2462;51.456;7.248;2023-01-05T06:57:25;13.40;99.90
2935;DHT22;2462;51.456;7.248;2023-01-05T06:59:50;13.40;99.90
2935;DHT22;2462;51.456;7.248;2023-01-05T07:02:16;13.40;99.90
2935;DHT22;2462;51.456;7.248;2023-01-05T07:04:42;13.40;99.90
2935;DHT22;2462;51.456;7.248;2023-01-05T07:07:11;13.40;99.90
2935;DHT22;2462;51.456;7.248;2023-01-05T07:09:36;13.40;99.90
2935;DHT22;2462;51.456;7.248;2023-01-05T07:12:02;13.40;99.90
2935;DHT22;2462;51.456;7.248;2023-01-05T07:14:28;13.40;99.90
2935;DHT22;2462;51.456;7.248;2023-01-05T07:16:53;13.40;99.90
2935;DHT22;2462;51.456;7.248;2023-01-05T07:19:19;13.40;99.90
2935;DHT22;2462;51.456;7.248;2023-01-05T07:21:44;13.40;99.90
2935;DHT22;2462;51.456;7.248;2023-01-05T07:24:12;13.50;99.90
2935;DHT22;2462;51.456;7.248;2023-01-05T07:26:41;13.50;99.90
2935;DHT22;2462;51.456;7.248;2023-01-05T07:29:06;13.50;99.90
2935;DHT22;2462;51.456;7.248;2023-01-05T07:31:32;13.50;99.90
2935;DHT22;2462;51.456;7.248;2023-01-05T07:34:00;13.50;99.90
2935;DHT22;2462;51.456;7.248;2023-01-05T07:36:26;13.50;99.90
2935;DHT22;2462;51.456;7.248;2023-01-05T07:38:52;13.50;99.90
2935;DHT22;2462;51.456;7.248;2023-01-05T07:41:20;13.40;99.90
2935;DHT22;2462;51.456;7.248;2023-01-05T07:43:48;13.50;99.90
2935;DHT22;2462;51.456;7.248;2023-01-05T07:46:25;13.50;99.90
2935;DHT22;2462;51.456;7.248;2023-01-05T07:48:51;13.50;99.90
2935;DHT22;2462;51.456;7.248;2023-01-05T07:51:17;13.50;99.90
2935;DHT22;2462;51.456;7.248;2023-01-05T07:53:42;13.50;99.90
2935;DHT22;2462;51.456;7.248;2023-01-05T07:56:09;13.50;99.90
2935;DHT22;2462;51.456;7.248;2023-01-05T07:58:35;13.50;99.90
2935;DHT22;2462;51.456;7.248;2023-01-05T08:01:09;13.50;99.90
2935;DHT22;2462;51.456;7.248;2023-01-05T08:03:35;13.50;99.90
2935;DHT22;2462;51.456;7.248;2023-01-05T08:06:12;13.50;99.90
2935;DHT22;2462;51.456;7.248;2023-01-05T08:08:38;13.50;99.90
2935;DHT22;2462;51.456;7.248;2023-01-05T08:11:05;13.50;99.90
2935;DHT22;2462;51.456;7.248;2023-01-05T08:13:31;13.50;99.90
2935;DHT22;2462;51.456;7.248;2023-01-05T08:16:16;13.50;99.90
2935;DHT22;2462;51.456;7.248;2023-01-05T08:18:41;13.50;99.90
2935;DHT22;2462;51.456;7.248;2023-01-05T08:21:07;13.50;99.90
2935;DHT22;2462;51.456;7.248;2023-01-05T08:23:34;13.50;99.90
2935;DHT22;2462;51.456;7.248;2023-01-05T08:26:05;13.50;99.90
2935;DHT22;2462;51.456;7.248;2023-01-05T08:28:31;13.50;99.90
2935;DHT22;2462;51.456;7.248;2023-01-05T08:31:04;13.50;99.90
2935;DHT22;2462;51.456;7.248;2023-01-05T08:33:29;13.50;99.90
2935;DHT22;2462;51.456;7.248;2023-01-05T08:35:55;13.50;99.90
2935;DHT22;2462;51.456;7.248;2023-01-05T08:38:24;13.50;99.90
2935;DHT22;2462;51.456;7.248;2023-01-05T08:40:50;13.50;99.90
2935;DHT22;2462;51.456;7.248;2023-01-05T08:43:15;13.50;99.90
2935;DHT22;2462;51.456;7.248;2023-01-05T08:45:42;13.60;99.90
2935;DHT22;2462;51.456;7.248;2023-01-05T08:48:11;13.60;99.90
2935;DHT22;2462;51.456;7.248;2023-01-05T08:50:37;13.60;99.90
2935;DHT22;2462;51.456;7.248;2023-01-05T08:53:03;13.60;99.90
2935;DHT22;2462;51.456;7.248;2023-01-05T08:55:28;13.60;99.90
2935;DHT22;2462;51.456;7.248;2023-01-05T08:57:55;13.50;99.90
2935;DHT22;2462;51.456;7.248;2023-01-05T09:00:21;13.40;99.90
2935;DHT22;2462;51.456;7.248;2023-01-05T09:02:47;13.40;99.90
2935;DHT22;2462;51.456;7.248;2023-01-05T09:05:13;13.50;99.90
2935;DHT22;2462;51.456;7.248;2023-01-05T09:07:38;13.50;99.90
2935;DHT22;2462;51.456;7.248;2023-01-05T09:10:06;13.60;99.90
2935;DHT22;2462;51.456;7.248;2023-01-05T09:12:34;13.60;99.90
2935;DHT22;2462;51.456;7.248;2023-01-05T09:15:00;13.70;99.90
2935;DHT22;2462;51.456;7.248;2023-01-05T09:17:26;13.70;99.90
2935;DHT22;2462;51.456;7.248;2023-01-05T09:19:51;13.80;99.90
2935;DHT22;2462;51.456;7.248;2023-01-05T09:22:17;13.80;99.90
2935;DHT22;2462;51.456;7.248;2023-01-05T09:24:43;13.80;99.90
2935;DHT22;2462;51.456;7.248;2023-01-05T09:27:08;13.90;99.90
2935;DHT22;2462;51.456;7.248;2023-01-05T09:29:34;13.90;99.90
2935;DHT22;2462;51.456;7.248;2023-01-05T09:32:00;13.90;99.90
2935;DHT22;2462;51.456;7.248;2023-01-05T09:34:25;14.00;99.90
2935;DHT22;2462;51.456;7.248;2023-01-05T09:36:51;14.00;99.90
2935;DHT22;2462;51.456;7.248;2023-01-05T09:39:17;14.10;99.90
2935;DHT22;2462;51.456;7.248;2023-01-05T09:42:02;14.10;99.90
2935;DHT22;2462;51.456;7.248;2023-01-05T09:47:02;14.20;99.90
2935;DHT22;2462;51.456;7.248;2023-01-05T09:49:30;14.20;99.90
2935;DHT22;2462;51.456;7.248;2023-01-05T09:52:02;14.20;99.90
2935;DHT22;2462;51.456;7.248;2023-01-05T09:54:31;14.20;99.90
2935;DHT22;2462;51.456;7.248;2023-01-05T09:56:58;14.20;99.90
2935;DHT22;2462;51.456;7.248;2023-01-05T09:59:30;14.30;99.90
2935;DHT22;2462;51.456;7.248;2023-01-05T10:01:59;14.30;99.90
2935;DHT22;2462;51.456;7.248;2023-01-05T10:04:29;14.30;99.90
2935;DHT22;2462;51.456;7.248;2023-01-05T10:07:14;14.30;99.90
2935;DHT22;2462;51.456;7.248;2023-01-05T10:09:42;14.40;99.90
2935;DHT22;2462;51.456;7.248;2023-01-05T10:14:54;14.50;99.90
2935;DHT22;2462;51.456;7.248;2023-01-05T10:17:22;14.50;99.90
2935;DHT22;2462;51.456;7.248;2023-01-05T10:19:48;14.50;99.90
2935;DHT22;2462;51.456;7.248;2023-01-05T10:22:38;14.50;99.90
2935;DHT22;2462;51.456;7.248;2023-01-05T10:25:17;14.60;99.90
2935;DHT22;2462;51.456;7.248;2023-01-05T10:33:45;14.80;99.90
2935;DHT22;2462;51.456;7.248;2023-01-05T10:41:54;14.90;99.90
2935;DHT22;2462;51.456;7.248;2023-01-05T10:44:45;15.00;99.90
2935;DHT22;2462;51.456;7.248;2023-01-05T10:47:25;15.00;99.90
2935;DHT22;2462;51.456;7.248;2023-01-05T10:49:52;15.10;99.90
2935;DHT22;2462;51.456;7.248;2023-01-05T10:52:20;15.10;99.90
2935;DHT22;2462;51.456;7.248;2023-01-05T10:54:59;15.10;99.90
2935;DHT22;2462;51.456;7.248;2023-01-05T11:02:27;15.20;99.90
2935;DHT22;2462;51.456;7.248;2023-01-05T11:04:54;15.30;99.90
2935;DHT22;2462;51.456;7.248;2023-01-05T11:07:25;15.30;99.90
2935;DHT22;2462;51.456;7.248;2023-01-05T11:10:02;15.30;99.90
2935;DHT22;2462;51.456;7.248;2023-01-05T11:12:33;15.30;99.90
2935;DHT22;2462;51.456;7.248;2023-01-05T11:15:09;15.40;99.90
2935;DHT22;2462;51.456;7.248;2023-01-05T11:17:51;15.40;99.90
2935;DHT22;2462;51.456;7.248;2023-01-05T11:20:17;15.50;99.90
2935;DHT22;2462;51.456;7.248;2023-01-05T11:25:40;15.50;99.90
2935;DHT22;2462;51.456;7.248;2023-01-05T11:28:19;15.50;99.90
2935;DHT22;2462;51.456;7.248;2023-01-05T11:30:58;15.50;99.90
2935;DHT22;2462;51.456;7.248;2023-01-05T11:33:29;15.50;99.90
2935;DHT22;2462;51.456;7.248;2023-01-05T11:35:58;15.50;99.90
2935;DHT22;2462;51.456;7.248;2023-01-05T11:38:26;15.50;99.90
2935;DHT22;2462;51.456;7.248;2023-01-05T11:40:53;15.50;99.90
2935;DHT22;2462;51.456;7.248;2023-01-05T11:43:22;15.50;99.90
2935;DHT22;2462;51.456;7.248;2023-01-05T11:45:55;15.50;99.90
2935;DHT22;2462;51.456;7.248;2023-01-05T11:48:27;15.50;99.90
2935;DHT22;2462;51.456;7.248;2023-01-05T11:50:55;15.60;99.90
2935;DHT22;2462;51.456;7.248;2023-01-05T11:53:29;15.60;99.90
2935;DHT22;2462;51.456;7.248;2023-01-05T11:56:12;15.60;99.90
2935;DHT22;2462;51.456;7.248;2023-01-05T11:58:44;15.60;99.90
2935;DHT22;2462;51.456;7.248;2023-01-05T12:09:33;15.60;99.90
2935;DHT22;2462;51.456;7.248;2023-01-05T12:15:27;15.60;99.90
2935;DHT22;2462;51.456;7.248;2023-01-05T12:26:26;15.70;99.90
2935;DHT22;2462;51.456;7.248;2023-01-05T12:29:23;15.70;99.90
2935;DHT22;2462;51.456;7.248;2023-01-05T12:32:06;15.50;99.90
2935;DHT22;2462;51.456;7.248;2023-01-05T12:43:07;15.00;99.90
2935;DHT22;2462;51.456;7.248;2023-01-05T12:50:57;15.30;99.90
2935;DHT22;2462;51.456;7.248;2023-01-05T12:53:40;15.40;99.90
2935;DHT22;2462;51.456;7.248;2023-01-05T12:56:14;15.40;99.90
2935;DHT22;2462;51.456;7.248;2023-01-05T12:58:52;15.50;99.90
2935;DHT22;2462;51.456;7.248;2023-01-05T13:01:24;15.60;99.90
2935;DHT22;2462;51.456;7.248;2023-01-05T13:04:17;15.70;99.90
2935;DHT22;2462;51.456;7.248;2023-01-05T13:06:50;15.70;99.90
2935;DHT22;2462;51.456;7.248;2023-01-05T13:09:21;15.80;99.90
2935;DHT22;2462;51.456;7.248;2023-01-05T13:12:07;15.80;99.90
2935;DHT22;2462;51.456;7.248;2023-01-05T13:14:38;15.90;99.90
2935;DHT22;2462;51.456;7.248;2023-01-05T13:17:23;15.90;99.90
2935;DHT22;2462;51.456;7.248;2023-01-05T13:20:01;15.90;99.90
2935;DHT22;2462;51.456;7.248;2023-01-05T13:22:31;16.00;99.90
2935;DHT22;2462;51.456;7.248;2023-01-05T13:25:07;16.00;99.90
2935;DHT22;2462;51.456;7.248;2023-01-05T13:27:38;16.00;99.90
2935;DHT22;2462;51.456;7.248;2023-01-05T13:30:04;16.10;99.90
2935;DHT22;2462;51.456;7.248;2023-01-05T13:32:40;16.10;99.90
2935;DHT22;2462;51.456;7.248;2023-01-05T13:35:28;16.10;99.90
2935;DHT22;2462;51.456;7.248;2023-01-05T13:40:49;16.30;99.90
2935;DHT22;2462;51.456;7.248;2023-01-05T13:52:01;16.30;99.90
2935;DHT22;2462;51.456;7.248;2023-01-05T13:54:39;16.30;99.90
2935;DHT22;2462;51.456;7.248;2023-01-05T13:57:13;16.20;99.90
2935;DHT22;2462;51.456;7.248;2023-01-05T13:59:40;16.20;99.90
2935;DHT22;2462;51.456;7.248;2023-01-05T14:04:51;16.20;99.90
2935;DHT22;2462;51.456;7.248;2023-01-05T14:07:17;16.20;99.90
2935;DHT22;2462;51.456;7.248;2023-01-05T14:09:47;16.10;99.90
2935;DHT22;2462;51.456;7.248;2023-01-05T14:14:58;16.10;99.90
2935;DHT22;2462;51.456;7.248;2023-01-05T14:33:59;16.00;99.90
2935;DHT22;2462;51.456;7.248;2023-01-05T14:36:38;16.00;99.90
2935;DHT22;2462;51.456;7.248;2023-01-05T14:47:39;15.90;99.90
2935;DHT22;2462;51.456;7.248;2023-01-05T14:50:23;15.80;99.90
2935;DHT22;2462;51.456;7.248;2023-01-05T14:55:33;15.80;99.90
2935;DHT22;2462;51.456;7.248;2023-01-05T14:58:01;15.70;99.90
2935;DHT22;2462;51.456;7.248;2023-01-05T15:00:35;15.70;99.90
2935;DHT22;2462;51.456;7.248;2023-01-05T15:03:24;15.70;99.90
2935;DHT22;2462;51.456;7.248;2023-01-05T15:06:08;15.60;99.90
2935;DHT22;2462;51.456;7.248;2023-01-05T15:11:37;15.60;99.90
2935;DHT22;2462;51.456;7.248;2023-01-05T15:14:58;15.50;99.90
2935;DHT22;2462;51.456;7.248;2023-01-05T15:20:05;15.10;99.90
2935;DHT22;2462;51.456;7.248;2023-01-05T15:31:32;14.30;99.90
2935;DHT22;2462;51.456;7.248;2023-01-05T15:39:53;14.40;99.90
2935;DHT22;2462;51.456;7.248;2023-01-05T15:42:32;14.40;99.90
2935;DHT22;2462;51.456;7.248;2023-01-05T15:45:00;14.40;99.90
2935;DHT22;2462;51.456;7.248;2023-01-05T15:47:27;14.50;99.90
2935;DHT22;2462;51.456;7.248;2023-01-05T15:50:00;14.50;99.90
2935;DHT22;2462;51.456;7.248;2023-01-05T15:52:38;14.50;99.90
2935;DHT22;2462;51.456;7.248;2023-01-05T15:55:13;14.50;99.90
2935;DHT22;2462;51.456;7.248;2023-01-05T15:57:39;14.50;99.90
2935;DHT22;2462;51.456;7.248;2023-01-05T16:00:29;14.50;99.90
2935;DHT22;2462;51.456;7.248;2023-01-05T16:02:55;14.50;99.90
2935;DHT22;2462;51.456;7.248;2023-01-05T16:05:25;14.50;99.90
2935;DHT22;2462;51.456;7.248;2023-01-05T16:08:00;14.50;99.90
2935;DHT22;2462;51.456;7.248;2023-01-05T16:10:37;14.50;99.90
2935;DHT22;2462;51.456;7.248;2023-01-05T16:13:15;14.50;99.90
2935;DHT22;2462;51.456;7.248;2023-01-05T16:15:42;14.50;99.90
2935;DHT22;2462;51.456;7.248;2023-01-05T16:18:13;14.50;99.90
2935;DHT22;2462;51.456;7.248;2023-01-05T16:20:40;14.50;99.90
2935;DHT22;2462;51.456;7.248;2023-01-05T16:26:16;14.50;99.90
2935;DHT22;2462;51.456;7.248;2023-01-05T16:28:43;14.40;99.90
2935;DHT22;2462;51.456;7.248;2023-01-05T16:31:27;14.40;99.90
2935;DHT22;2462;51.456;7.248;2023-01-05T16:34:15;14.40;99.90
2935;DHT22;2462;51.456;7.248;2023-01-05T16:37:05;14.40;99.90
2935;DHT22;2462;51.456;7.248;2023-01-05T16:39:38;14.40;99.90
2935;DHT22;2462;51.456;7.248;2023-01-05T16:42:17;14.40;99.90
2935;DHT22;2462;51.456;7.248;2023-01-05T16:45:06;14.40;99.90
2935;DHT22;2462;51.456;7.248;2023-01-05T16:47:38;14.40;99.90
2935;DHT22;2462;51.456;7.248;2023-01-05T16:55:35;14.30;99.90
2935;DHT22;2462;51.456;7.248;2023-01-05T17:00:46;14.30;99.90
2935;DHT22;2462;51.456;7.248;2023-01-05T17:03:30;14.30;99.90
2935;DHT22;2462;51.456;7.248;2023-01-05T17:05:58;14.30;99.90
2935;DHT22;2462;51.456;7.248;2023-01-05T17:08:26;14.30;99.90
2935;DHT22;2462;51.456;7.248;2023-01-05T17:10:54;14.30;99.90
2935;DHT22;2462;51.456;7.248;2023-01-05T17:13:23;14.20;99.90
2935;DHT22;2462;51.456;7.248;2023-01-05T17:15:51;14.20;99.90
2935;DHT22;2462;51.456;7.248;2023-01-05T17:18:27;14.20;99.90
2935;DHT22;2462;51.456;7.248;2023-01-05T17:20:54;14.20;99.90
2935;DHT22;2462;51.456;7.248;2023-01-05T17:23:30;14.20;99.90
2935;DHT22;2462;51.456;7.248;2023-01-05T17:25:58;14.20;99.90
2935;DHT22;2462;51.456;7.248;2023-01-05T17:28:26;14.20;99.90
2935;DHT22;2462;51.456;7.248;2023-01-05T17:30:52;14.20;99.90
2935;DHT22;2462;51.456;7.248;2023-01-05T17:33:18;14.20;99.90
2935;DHT22;2462;51.456;7.248;2023-01-05T17:35:45;14.20;99.90
2935;DHT22;2462;51.456;7.248;2023-01-05T17:38:11;14.10;99.90
2935;DHT22;2462;51.456;7.248;2023-01-05T17:40:38;14.10;99.90
2935;DHT22;2462;51.456;7.248;2023-01-05T17:43:04;14.10;99.90
2935;DHT22;2462;51.456;7.248;2023-01-05T17:45:30;14.10;99.90
2935;DHT22;2462;51.456;7.248;2023-01-05T17:47:56;14.10;99.90
2935;DHT22;2462;51.456;7.248;2023-01-05T17:50:30;14.10;99.90
2935;DHT22;2462;51.456;7.248;2023-01-05T17:52:57;14.10;99.90
2935;DHT22;2462;51.456;7.248;2023-01-05T17:55:23;14.00;99.90
2935;DHT22;2462;51.456;7.248;2023-01-05T17:57:49;14.00;99.90
2935;DHT22;2462;51.456;7.248;2023-01-05T18:00:17;14.00;99.90
2935;DHT22;2462;51.456;7.248;2023-01-05T18:02:43;14.00;99.90
2935;DHT22;2462;51.456;7.248;2023-01-05T18:05:10;14.00;99.90
2935;DHT22;2462;51.456;7.248;2023-01-05T18:07:36;14.00;99.90
2935;DHT22;2462;51.456;7.248;2023-01-05T18:10:03;14.00;99.90
2935;DHT22;2462;51.456;7.248;2023-01-05T18:12:29;14.00;99.90
2935;DHT22;2462;51.456;7.248;2023-01-05T18:14:55;14.00;99.90
2935;DHT22;2462;51.456;7.248;2023-01-05T18:17:21;14.00;99.90
2935;DHT22;2462;51.456;7.248;2023-01-05T18:19:46;14.00;99.90
2935;DHT22;2462;51.456;7.248;2023-01-05T18:22:12;14.00;99.90
2935;DHT22;2462;51.456;7.248;2023-01-05T18:24:39;14.00;99.90
2935;DHT22;2462;51.456;7.248;2023-01-05T18:27:05;13.90;99.90
2935;DHT22;2462;51.456;7.248;2023-01-05T18:29:35;14.00;99.90
2935;DHT22;2462;51.456;7.248;2023-01-05T18:32:01;14.00;99.90
2935;DHT22;2462;51.456;7.248;2023-01-05T18:34:26;14.00;99.90
2935;DHT22;2462;51.456;7.248;2023-01-05T18:36:52;13.90;99.90
2935;DHT22;2462;51.456;7.248;2023-01-05T18:39:18;13.90;99.90
2935;DHT22;2462;51.456;7.248;2023-01-05T18:41:43;13.90;99.90
2935;DHT22;2462;51.456;7.248;2023-01-05T18:44:09;13.90;99.90
2935;DHT22;2462;51.456;7.248;2023-01-05T18:46:34;13.90;99.90
2935;DHT22;2462;51.456;7.248;2023-01-05T18:49:00;13.90;99.90
2935;DHT22;2462;51.456;7.248;2023-01-05T18:51:26;13.90;99.90
2935;DHT22;2462;51.456;7.248;2023-01-05T18:53:52;13.90;99.90
2935;DHT22;2462;51.456;7.248;2023-01-05T18:56:17;13.90;99.90